createdAt,value
2023-01-03T00:02:32.465Z,20.93
2023-01-03T00:07:34.986Z,43.83
2023-01-03T00:12:38.004Z,54.03
2023-01-03T00:17:40.417Z,27.73
2023-01-03T00:22:42.990Z,19.63
2023-01-03T00:27:46.835Z,12.07
2023-01-03T00:32:49.266Z,15.80
2023-01-03T00:37:51.638Z,15.90
2023-01-03T00:43:12.539Z,13.23
2023-01-03T00:48:14.911Z,13.67
2023-01-03T00:53:17.348Z,12.43
2023-01-03T00:58:19.773Z,15.37
2023-01-03T01:03:22.859Z,14.03
2023-01-03T01:08:25.410Z,12.60
2023-01-03T01:13:29.811Z,14.17
2023-01-03T01:18:33.155Z,11.43
2023-01-03T01:23:37.472Z,11.97
2023-01-03T01:28:40.215Z,11.87
2023-01-03T01:33:42.975Z,13.73
2023-01-03T01:38:47.239Z,13.87
2023-01-03T01:44:15.946Z,11.93
2023-01-03T01:49:28.283Z,12.20
2023-01-03T01:54:31.199Z,10.60
2023-01-03T01:59:33.683Z,13.13
2023-01-03T02:04:39.700Z,12.73
2023-01-03T02:09:42.143Z,13.93
2023-01-03T02:15:42.048Z,20.27
2023-01-03T02:21:21.196Z,14.63
2023-01-03T02:26:44.625Z,12.57
2023-01-03T02:31:49.729Z,12.00
2023-01-03T02:37:06.648Z,14.13
2023-01-03T02:42:31.671Z,14.23
2023-01-03T02:47:46.473Z,12.30
2023-01-03T02:52:52.744Z,11.57
2023-01-03T02:58:09.161Z,13.80
2023-01-03T03:03:15.413Z,11.30
2023-01-03T03:08:18.252Z,13.97
2023-01-03T03:13:35.032Z,8.90
2023-01-03T03:18:59.057Z,10.87
2023-01-03T03:24:30.120Z,10.73
2023-01-03T03:29:34.083Z,9.40
2023-01-03T03:34:38.296Z,8.90
2023-01-03T03:39:59.415Z,9.40
2023-01-03T03:45:10.678Z,10.70
2023-01-03T03:50:51.673Z,6.87
2023-01-03T03:56:00.425Z,11.83
2023-01-03T04:01:03.875Z,11.37
2023-01-03T04:06:22.083Z,8.13
2023-01-03T04:11:24.920Z,11.17
2023-01-03T04:16:27.332Z,9.40
2023-01-03T04:21:29.950Z,16.10
2023-01-03T04:26:32.523Z,9.80
2023-01-03T04:31:35.089Z,9.30
2023-01-03T04:36:37.519Z,8.80
2023-01-03T04:41:39.911Z,11.70
2023-01-03T04:46:45.148Z,12.93
2023-01-03T04:51:51.470Z,9.40
2023-01-03T04:56:53.812Z,12.10
2023-01-03T05:01:56.362Z,13.93
2023-01-03T05:06:58.877Z,12.43
2023-01-03T05:12:01.450Z,11.23
2023-01-03T05:17:04.102Z,14.67
2023-01-03T05:22:25.182Z,12.83
2023-01-03T05:27:27.803Z,9.40
2023-01-03T05:32:30.239Z,11.50
2023-01-03T05:37:32.639Z,14.13
2023-01-03T05:42:35.274Z,11.90
2023-01-03T05:47:37.669Z,15.40
2023-01-03T05:52:40.046Z,16.40
2023-01-03T05:57:42.449Z,17.43
2023-01-03T06:02:44.953Z,15.53
2023-01-03T06:07:47.398Z,39.00
2023-01-03T06:12:50.848Z,39.50
2023-01-03T06:17:57.967Z,91.60
2023-01-03T06:23:03.149Z,73.07
2023-01-03T06:28:05.541Z,16.43
2023-01-03T06:33:08.169Z,19.37
2023-01-03T06:38:10.566Z,45.10
2023-01-03T06:43:13.105Z,23.27
2023-01-03T06:48:34.085Z,21.43
2023-01-03T06:53:40.567Z,10.20
2023-01-03T06:58:42.985Z,10.17
2023-01-03T07:03:45.550Z,5.97
2023-01-03T07:08:48.744Z,4.70
2023-01-03T07:14:01.137Z,10.47
2023-01-03T07:19:05.879Z,6.50
2023-01-03T07:24:11.817Z,6.30
2023-01-03T07:29:14.262Z,7.17
2023-01-03T07:34:16.692Z,4.60
2023-01-03T07:39:19.217Z,5.90
2023-01-03T07:44:21.712Z,6.37
2023-01-03T07:49:25.746Z,17.73
2023-01-03T07:54:28.376Z,33.17
2023-01-03T07:59:30.843Z,83.17
2023-01-03T08:04:33.272Z,54.40
2023-01-03T08:09:54.260Z,33.10
2023-01-03T08:15:06.812Z,12.57
2023-01-03T08:20:09.594Z,12.00
2023-01-03T08:25:12.184Z,12.63
2023-01-03T08:30:14.632Z,110.93
2023-01-03T08:35:17.455Z,238.40
2023-01-03T08:40:20.626Z,37.47
2023-01-03T08:45:23.152Z,24.20
2023-01-03T08:50:26.540Z,19.73
2023-01-03T08:55:28.919Z,12.83
2023-01-03T09:00:31.532Z,15.87
2023-01-03T09:05:36.505Z,14.37
2023-01-03T09:10:47.123Z,77.83
2023-01-03T09:15:50.880Z,366.63
2023-01-03T09:20:53.350Z,77.90
2023-01-03T09:25:55.914Z,108.20
2023-01-03T09:30:58.688Z,59.83
2023-01-03T09:36:01.183Z,16.77
2023-01-03T09:41:07.926Z,17.73
2023-01-03T09:46:20.086Z,15.47
2023-01-03T09:51:57.167Z,22.43
2023-01-03T09:57:21.818Z,502.03
2023-01-03T10:03:10.457Z,242.07
2023-01-03T10:08:42.098Z,103.10
2023-01-03T10:14:20.350Z,50.40
2023-01-03T10:20:07.539Z,18.70
2023-01-03T10:25:17.261Z,148.33
2023-01-03T10:30:27.640Z,83.17
2023-01-03T10:35:35.926Z,124.07
2023-01-03T10:40:53.060Z,90.57
2023-01-03T10:46:04.104Z,109.23
2023-01-03T10:51:21.825Z,285.80
2023-01-03T10:56:25.816Z,505.13
2023-01-03T11:01:28.336Z,224.50
2023-01-03T11:06:30.904Z,77.20
2023-01-03T11:11:35.614Z,66.23
2023-01-03T11:16:38.406Z,28.07
2023-01-03T11:22:25.243Z,15.23
2023-01-03T11:27:36.303Z,35.73
2023-01-03T11:32:56.826Z,25.63
2023-01-03T11:38:07.562Z,10.23
2023-01-03T11:43:30.519Z,14.63
2023-01-03T11:48:47.451Z,16.27
2023-01-03T11:53:52.506Z,7.20
2023-01-03T11:59:24.014Z,200.13
2023-01-03T12:04:39.443Z,263.67
2023-01-03T12:09:54.393Z,25.80
2023-01-03T12:15:12.398Z,34.60
2023-01-03T12:20:31.460Z,18.93
2023-01-03T12:25:40.984Z,10.57
2023-01-03T12:30:57.002Z,12.43
2023-01-03T12:36:07.548Z,6.73
2023-01-03T12:41:33.807Z,11.93
2023-01-03T12:46:41.915Z,10.67
2023-01-03T12:51:44.528Z,6.73
2023-01-03T12:57:14.528Z,7.10
2023-01-03T13:02:24.852Z,8.50
2023-01-03T13:07:30.326Z,26.97
2023-01-03T13:12:35.496Z,11.27
2023-01-03T13:17:48.877Z,17.03
2023-01-03T13:23:06.721Z,118.67
2023-01-03T13:28:21.960Z,9.33
2023-01-03T13:33:24.497Z,25.93
2023-01-03T13:38:32.551Z,15.50
2023-01-03T13:43:40.249Z,44.07
2023-01-03T13:48:56.927Z,42.23
2023-01-03T13:54:13.413Z,12.00
2023-01-03T13:59:17.904Z,8.77
2023-01-03T14:04:46.751Z,70.00
2023-01-03T14:10:05.609Z,24.73
2023-01-03T14:15:25.826Z,35.20
2023-01-03T14:20:34.250Z,33.27
2023-01-03T14:25:42.191Z,39.27
2023-01-03T14:30:46.391Z,183.47
2023-01-03T14:35:49.497Z,58.47
2023-01-03T14:40:52.279Z,42.70
2023-01-03T14:46:02.425Z,33.20
2023-01-03T14:51:05.969Z,34.30
2023-01-03T14:56:10.756Z,36.00
2023-01-03T15:01:15.844Z,56.70
2023-01-03T15:06:23.847Z,43.17
2023-01-03T15:11:57.125Z,67.97
2023-01-03T15:17:16.400Z,259.13
2023-01-03T15:22:22.135Z,311.37
2023-01-03T15:27:40.235Z,273.87
2023-01-03T15:33:05.313Z,177.53
2023-01-03T15:38:33.053Z,143.73
2023-01-03T15:43:38.562Z,111.63
2023-01-03T15:48:43.813Z,155.20
2023-01-03T15:53:46.338Z,168.27
2023-01-03T15:58:51.733Z,161.33
2023-01-03T16:03:54.469Z,140.30
2023-01-03T16:08:57.085Z,139.63
2023-01-03T16:14:02.587Z,118.57
2023-01-03T16:19:07.984Z,158.73
2023-01-03T16:24:17.580Z,197.43
2023-01-03T16:29:20.059Z,197.00
2023-01-03T16:34:28.783Z,180.43
2023-01-03T16:39:34.216Z,191.40
2023-01-03T16:44:38.168Z,198.33
2023-01-03T16:49:41.817Z,176.07
2023-01-03T16:54:44.583Z,166.37
2023-01-03T16:59:48.424Z,155.13
2023-01-03T17:04:50.881Z,296.80
2023-01-03T17:09:53.300Z,311.67
2023-01-03T17:14:57.132Z,360.20
2023-01-03T17:20:04.044Z,370.80
2023-01-03T17:25:10.968Z,290.50
2023-01-03T17:30:19.777Z,327.50
2023-01-03T17:35:23.330Z,364.90
2023-01-03T17:40:33.193Z,345.43
2023-01-03T17:45:54.470Z,355.50
2023-01-03T17:50:57.630Z,359.53
2023-01-03T17:56:00.184Z,372.30
2023-01-03T18:01:03.233Z,384.17
2023-01-03T18:06:26.247Z,429.40
2023-01-03T18:11:28.703Z,409.37
2023-01-03T18:16:31.278Z,429.70
2023-01-03T18:21:34.472Z,375.73
2023-01-03T18:26:39.429Z,397.20
2023-01-03T18:31:43.423Z,402.13
2023-01-03T18:36:51.122Z,367.07
2023-01-03T18:41:53.860Z,284.93
2023-01-03T18:46:56.300Z,281.30
2023-01-03T18:51:58.737Z,278.77
2023-01-03T18:57:01.175Z,264.80
2023-01-03T19:02:13.833Z,187.87
2023-01-03T19:07:26.113Z,143.33
2023-01-03T19:12:32.514Z,185.27
2023-01-03T19:17:34.912Z,277.87
2023-01-03T19:22:39.159Z,166.77
2023-01-03T19:27:45.236Z,137.03
2023-01-03T19:32:56.574Z,146.97
2023-01-03T19:37:59.506Z,180.83
2023-01-03T19:43:02.326Z,165.23
2023-01-03T19:48:17.650Z,168.43
2023-01-03T19:53:20.171Z,216.23
2023-01-03T19:58:29.415Z,191.97
2023-01-03T20:03:39.754Z,185.50
2023-01-03T20:08:42.325Z,189.43
2023-01-03T20:13:45.433Z,239.93
2023-01-03T20:18:48.640Z,296.93
2023-01-03T20:23:56.291Z,246.13
2023-01-03T20:29:00.263Z,237.57
2023-01-03T20:34:06.445Z,250.50
2023-01-03T20:39:24.611Z,257.20
2023-01-03T20:44:27.175Z,292.90
2023-01-03T20:49:29.616Z,282.60
2023-01-03T20:54:32.069Z,306.77
2023-01-03T20:59:34.418Z,396.17
2023-01-03T21:04:37.857Z,277.93
2023-01-03T21:09:40.250Z,166.50
2023-01-03T21:14:42.632Z,150.00
2023-01-03T21:19:45.150Z,230.50
2023-01-03T21:24:50.880Z,258.47
2023-01-03T21:29:58.042Z,261.13
2023-01-03T21:35:02.498Z,310.60
2023-01-03T21:40:05.899Z,303.73
2023-01-03T21:45:12.876Z,280.07
2023-01-03T21:50:15.373Z,257.67
2023-01-03T21:55:18.015Z,206.53
2023-01-03T22:00:20.440Z,199.93
2023-01-03T22:05:23.170Z,197.77
2023-01-03T22:10:25.670Z,177.20
2023-01-03T22:15:28.487Z,180.70
2023-01-03T22:20:36.528Z,191.67
2023-01-03T22:25:41.052Z,199.53
2023-01-03T22:30:43.427Z,206.33
2023-01-03T22:35:45.842Z,195.43
2023-01-03T22:40:51.299Z,187.07
2023-01-03T22:45:53.818Z,188.43
2023-01-03T22:50:56.337Z,184.23
2023-01-03T22:55:58.863Z,178.50
2023-01-03T23:01:13.227Z,191.23
2023-01-03T23:06:18.472Z,199.60
2023-01-03T23:11:42.415Z,181.40
2023-01-03T23:16:46.211Z,178.43
2023-01-03T23:21:48.924Z,197.97
2023-01-03T23:26:52.913Z,186.63
2023-01-03T23:31:55.594Z,212.93
2023-01-03T23:36:58.116Z,180.27
2023-01-03T23:42:01.091Z,166.70
2023-01-03T23:47:09.331Z,167.20
2023-01-03T23:52:14.171Z,169.97
2023-01-03T23:57:16.838Z,185.30
